sensor_id;sensor_type;location;lat;lon;timestamp;P1;durP1;ratioP1;P2;durP2;ratioP2
72649;SDS011;61467;50.674;4.618;2023-12-22T00:01:34;7.10;;;1.60;;
72649;SDS011;61467;50.674;4.618;2023-12-22T00:04:01;11.07;;;1.70;;
72649;SDS011;61467;50.674;4.618;2023-12-22T00:06:31;15.10;;;2.38;;
72649;SDS011;61467;50.674;4.618;2023-12-22T00:08:57;13.00;;;2.08;;
72649;SDS011;61467;50.674;4.618;2023-12-22T00:11:26;11.95;;;1.83;;
72649;SDS011;61467;50.674;4.618;2023-12-22T00:13:52;11.70;;;1.75;;
72649;SDS011;61467;50.674;4.618;2023-12-22T00:16:19;7.73;;;1.30;;
72649;SDS011;61467;50.674;4.618;2023-12-22T00:18:46;13.02;;;1.83;;
72649;SDS011;61467;50.674;4.618;2023-12-22T00:21:13;12.93;;;1.80;;
72649;SDS011;61467;50.674;4.618;2023-12-22T00:23:40;11.27;;;1.42;;
72649;SDS011;61467;50.674;4.618;2023-12-22T00:26:06;12.73;;;1.70;;
72649;SDS011;61467;50.674;4.618;2023-12-22T00:28:35;8.77;;;1.80;;
72649;SDS011;61467;50.674;4.618;2023-12-22T00:31:02;15.15;;;1.75;;
72649;SDS011;61467;50.674;4.618;2023-12-22T00:33:29;11.88;;;1.80;;
72649;SDS011;61467;50.674;4.618;2023-12-22T00:35:55;13.43;;;2.08;;
72649;SDS011;61467;50.674;4.618;2023-12-22T00:38:24;7.43;;;1.20;;
72649;SDS011;61467;50.674;4.618;2023-12-22T00:40:51;9.97;;;1.40;;
72649;SDS011;61467;50.674;4.618;2023-12-22T00:43:18;7.70;;;1.40;;
72649;SDS011;61467;50.674;4.618;2023-12-22T00:45:46;7.80;;;1.20;;
72649;SDS011;61467;50.674;4.618;2023-12-22T00:48:14;7.47;;;1.05;;
72649;SDS011;61467;50.674;4.618;2023-12-22T00:50:41;5.95;;;1.55;;
72649;SDS011;61467;50.674;4.618;2023-12-22T00:53:08;9.33;;;1.03;;
72649;SDS011;61467;50.674;4.618;2023-12-22T00:55:35;6.05;;;1.40;;
72649;SDS011;61467;50.674;4.618;2023-12-22T00:58:02;8.40;;;1.52;;
72649;SDS011;61467;50.674;4.618;2023-12-22T01:00:29;10.50;;;1.70;;
72649;SDS011;61467;50.674;4.618;2023-12-22T01:02:57;9.93;;;1.73;;
72649;SDS011;61467;50.674;4.618;2023-12-22T01:05:23;8.60;;;1.53;;
72649;SDS011;61467;50.674;4.618;2023-12-22T01:07:50;12.15;;;1.95;;
72649;SDS011;61467;50.674;4.618;2023-12-22T01:10:17;7.43;;;1.55;;
72649;SDS011;61467;50.674;4.618;2023-12-22T01:12:44;10.75;;;1.63;;
72649;SDS011;61467;50.674;4.618;2023-12-22T01:15:12;8.15;;;1.63;;
72649;SDS011;61467;50.674;4.618;2023-12-22T01:17:39;13.47;;;1.53;;
72649;SDS011;61467;50.674;4.618;2023-12-22T01:20:07;12.20;;;2.45;;
72649;SDS011;61467;50.674;4.618;2023-12-22T01:22:35;8.63;;;2.05;;
72649;SDS011;61467;50.674;4.618;2023-12-22T01:25:03;12.60;;;1.70;;
72649;SDS011;61467;50.674;4.618;2023-12-22T01:27:31;11.73;;;2.30;;
72649;SDS011;61467;50.674;4.618;2023-12-22T01:29:57;11.00;;;1.90;;
72649;SDS011;61467;50.674;4.618;2023-12-22T01:32:24;9.25;;;2.08;;
72649;SDS011;61467;50.674;4.618;2023-12-22T01:34:51;14.18;;;1.67;;
72649;SDS011;61467;50.674;4.618;2023-12-22T01:37:19;11.43;;;2.50;;
72649;SDS011;61467;50.674;4.618;2023-12-22T01:39:48;10.30;;;1.88;;
72649;SDS011;61467;50.674;4.618;2023-12-22T01:42:15;12.10;;;1.87;;
72649;SDS011;61467;50.674;4.618;2023-12-22T01:44:42;14.88;;;1.67;;
72649;SDS011;61467;50.674;4.618;2023-12-22T01:47:09;14.50;;;1.70;;
72649;SDS011;61467;50.674;4.618;2023-12-22T01:49:36;18.45;;;2.13;;
72649;SDS011;61467;50.674;4.618;2023-12-22T01:52:03;12.70;;;1.70;;
72649;SDS011;61467;50.674;4.618;2023-12-22T01:54:34;10.80;;;2.00;;
72649;SDS011;61467;50.674;4.618;2023-12-22T01:57:01;10.82;;;1.85;;
72649;SDS011;61467;50.674;4.618;2023-12-22T01:59:28;14.35;;;1.80;;
72649;SDS011;61467;50.674;4.618;2023-12-22T02:01:59;13.15;;;1.70;;
72649;SDS011;61467;50.674;4.618;2023-12-22T02:04:27;12.07;;;2.20;;
72649;SDS011;61467;50.674;4.618;2023-12-22T02:06:54;12.23;;;1.60;;
72649;SDS011;61467;50.674;4.618;2023-12-22T02:09:21;13.65;;;1.90;;
72649;SDS011;61467;50.674;4.618;2023-12-22T02:11:49;9.90;;;2.10;;
72649;SDS011;61467;50.674;4.618;2023-12-22T02:14:17;12.13;;;1.77;;
72649;SDS011;61467;50.674;4.618;2023-12-22T02:16:45;14.52;;;1.77;;
72649;SDS011;61467;50.674;4.618;2023-12-22T02:19:20;14.53;;;1.90;;
72649;SDS011;61467;50.674;4.618;2023-12-22T02:21:59;14.20;;;1.73;;
72649;SDS011;61467;50.674;4.618;2023-12-22T02:24:29;12.13;;;2.22;;
72649;SDS011;61467;50.674;4.618;2023-12-22T02:26:56;15.18;;;2.25;;
72649;SDS011;61467;50.674;4.618;2023-12-22T02:29:31;13.57;;;1.70;;
72649;SDS011;61467;50.674;4.618;2023-12-22T02:32:02;13.10;;;2.00;;
72649;SDS011;61467;50.674;4.618;2023-12-22T02:34:36;13.55;;;2.35;;
72649;SDS011;61467;50.674;4.618;2023-12-22T02:37:08;13.57;;;2.47;;
72649;SDS011;61467;50.674;4.618;2023-12-22T02:39:36;14.68;;;3.15;;
72649;SDS011;61467;50.674;4.618;2023-12-22T02:42:04;12.63;;;1.80;;
72649;SDS011;61467;50.674;4.618;2023-12-22T02:44:32;14.90;;;2.13;;
72649;SDS011;61467;50.674;4.618;2023-12-22T02:46:59;8.15;;;1.40;;
72649;SDS011;61467;50.674;4.618;2023-12-22T02:49:28;10.63;;;1.52;;
72649;SDS011;61467;50.674;4.618;2023-12-22T02:51:55;11.48;;;2.45;;
72649;SDS011;61467;50.674;4.618;2023-12-22T02:54:21;11.98;;;1.40;;
72649;SDS011;61467;50.674;4.618;2023-12-22T02:56:50;11.93;;;1.80;;
72649;SDS011;61467;50.674;4.618;2023-12-22T02:59:16;10.85;;;1.95;;
72649;SDS011;61467;50.674;4.618;2023-12-22T03:01:43;6.88;;;1.40;;
72649;SDS011;61467;50.674;4.618;2023-12-22T03:04:10;11.20;;;1.70;;
72649;SDS011;61467;50.674;4.618;2023-12-22T03:06:37;9.70;;;1.60;;
72649;SDS011;61467;50.674;4.618;2023-12-22T03:09:03;7.67;;;1.83;;
72649;SDS011;61467;50.674;4.618;2023-12-22T03:11:31;8.57;;;1.63;;
72649;SDS011;61467;50.674;4.618;2023-12-22T03:13:59;4.53;;;0.98;;
72649;SDS011;61467;50.674;4.618;2023-12-22T03:16:26;7.80;;;1.38;;
72649;SDS011;61467;50.674;4.618;2023-12-22T03:18:53;8.80;;;1.00;;
72649;SDS011;61467;50.674;4.618;2023-12-22T03:21:19;6.23;;;1.03;;
72649;SDS011;61467;50.674;4.618;2023-12-22T03:23:46;7.40;;;1.42;;
72649;SDS011;61467;50.674;4.618;2023-12-22T03:26:13;7.97;;;1.40;;
72649;SDS011;61467;50.674;4.618;2023-12-22T03:28:40;9.50;;;1.60;;
72649;SDS011;61467;50.674;4.618;2023-12-22T03:31:08;6.60;;;1.50;;
72649;SDS011;61467;50.674;4.618;2023-12-22T03:33:35;8.03;;;1.90;;
72649;SDS011;61467;50.674;4.618;2023-12-22T03:36:02;10.52;;;2.13;;
72649;SDS011;61467;50.674;4.618;2023-12-22T03:38:31;14.43;;;1.88;;
72649;SDS011;61467;50.674;4.618;2023-12-22T03:40:57;9.38;;;1.77;;
72649;SDS011;61467;50.674;4.618;2023-12-22T03:43:24;7.88;;;1.60;;
72649;SDS011;61467;50.674;4.618;2023-12-22T03:45:51;10.93;;;1.63;;
72649;SDS011;61467;50.674;4.618;2023-12-22T03:48:20;12.50;;;2.33;;
72649;SDS011;61467;50.674;4.618;2023-12-22T03:50:46;12.80;;;2.50;;
72649;SDS011;61467;50.674;4.618;2023-12-22T03:53:13;12.65;;;2.83;;
72649;SDS011;61467;50.674;4.618;2023-12-22T03:55:40;13.45;;;2.20;;
72649;SDS011;61467;50.674;4.618;2023-12-22T03:58:07;14.17;;;2.23;;
72649;SDS011;61467;50.674;4.618;2023-12-22T04:00:34;11.38;;;1.77;;
72649;SDS011;61467;50.674;4.618;2023-12-22T04:03:01;13.43;;;1.92;;
72649;SDS011;61467;50.674;4.618;2023-12-22T04:05:29;10.60;;;1.85;;
72649;SDS011;61467;50.674;4.618;2023-12-22T04:07:56;11.88;;;1.70;;
72649;SDS011;61467;50.674;4.618;2023-12-22T04:10:22;11.77;;;2.20;;
72649;SDS011;61467;50.674;4.618;2023-12-22T04:12:49;11.82;;;2.35;;
72649;SDS011;61467;50.674;4.618;2023-12-22T04:15:16;13.63;;;1.95;;
72649;SDS011;61467;50.674;4.618;2023-12-22T04:17:43;13.90;;;2.40;;
72649;SDS011;61467;50.674;4.618;2023-12-22T04:20:10;10.15;;;2.20;;
72649;SDS011;61467;50.674;4.618;2023-12-22T04:22:39;12.60;;;2.03;;
72649;SDS011;61467;50.674;4.618;2023-12-22T04:25:06;10.77;;;2.10;;
72649;SDS011;61467;50.674;4.618;2023-12-22T04:27:33;12.70;;;2.40;;
72649;SDS011;61467;50.674;4.618;2023-12-22T04:30:00;10.43;;;2.70;;
72649;SDS011;61467;50.674;4.618;2023-12-22T04:32:27;16.35;;;2.60;;
72649;SDS011;61467;50.674;4.618;2023-12-22T04:34:54;16.87;;;2.80;;
72649;SDS011;61467;50.674;4.618;2023-12-22T04:37:21;11.68;;;2.22;;
72649;SDS011;61467;50.674;4.618;2023-12-22T04:39:51;15.80;;;2.90;;
72649;SDS011;61467;50.674;4.618;2023-12-22T04:42:18;12.80;;;2.72;;
72649;SDS011;61467;50.674;4.618;2023-12-22T04:44:47;14.57;;;2.50;;
72649;SDS011;61467;50.674;4.618;2023-12-22T04:47:14;15.97;;;2.83;;
72649;SDS011;61467;50.674;4.618;2023-12-22T04:49:41;13.10;;;2.28;;
72649;SDS011;61467;50.674;4.618;2023-12-22T04:52:10;12.98;;;2.17;;
72649;SDS011;61467;50.674;4.618;2023-12-22T04:54:37;16.92;;;2.63;;
72649;SDS011;61467;50.674;4.618;2023-12-22T04:57:06;13.00;;;2.45;;
72649;SDS011;61467;50.674;4.618;2023-12-22T04:59:33;13.03;;;2.50;;
72649;SDS011;61467;50.674;4.618;2023-12-22T05:02:00;15.38;;;2.60;;
72649;SDS011;61467;50.674;4.618;2023-12-22T05:04:27;16.77;;;2.35;;
72649;SDS011;61467;50.674;4.618;2023-12-22T05:06:54;17.67;;;1.73;;
72649;SDS011;61467;50.674;4.618;2023-12-22T05:09:21;14.60;;;2.53;;
72649;SDS011;61467;50.674;4.618;2023-12-22T05:11:50;13.87;;;2.07;;
72649;SDS011;61467;50.674;4.618;2023-12-22T05:14:20;10.30;;;2.10;;
72649;SDS011;61467;50.674;4.618;2023-12-22T05:16:47;15.90;;;1.98;;
72649;SDS011;61467;50.674;4.618;2023-12-22T05:19:14;16.15;;;2.17;;
72649;SDS011;61467;50.674;4.618;2023-12-22T05:21:42;19.83;;;2.60;;
72649;SDS011;61467;50.674;4.618;2023-12-22T05:24:08;14.23;;;2.37;;
72649;SDS011;61467;50.674;4.618;2023-12-22T05:26:35;17.30;;;2.60;;
72649;SDS011;61467;50.674;4.618;2023-12-22T05:29:02;13.57;;;2.67;;
72649;SDS011;61467;50.674;4.618;2023-12-22T05:31:30;15.10;;;2.60;;
72649;SDS011;61467;50.674;4.618;2023-12-22T05:33:58;15.02;;;3.03;;
72649;SDS011;61467;50.674;4.618;2023-12-22T05:36:24;18.60;;;2.20;;
72649;SDS011;61467;50.674;4.618;2023-12-22T05:38:53;25.10;;;2.75;;
72649;SDS011;61467;50.674;4.618;2023-12-22T05:41:20;11.25;;;2.17;;
72649;SDS011;61467;50.674;4.618;2023-12-22T05:43:46;20.15;;;2.90;;
72649;SDS011;61467;50.674;4.618;2023-12-22T05:46:13;23.80;;;3.67;;
72649;SDS011;61467;50.674;4.618;2023-12-22T05:48:41;15.97;;;2.50;;
72649;SDS011;61467;50.674;4.618;2023-12-22T05:51:08;15.13;;;2.65;;
72649;SDS011;61467;50.674;4.618;2023-12-22T05:53:38;15.82;;;2.45;;
72649;SDS011;61467;50.674;4.618;2023-12-22T05:56:06;18.70;;;2.70;;
72649;SDS011;61467;50.674;4.618;2023-12-22T05:58:43;18.30;;;2.83;;
72649;SDS011;61467;50.674;4.618;2023-12-22T06:01:16;13.97;;;2.57;;
72649;SDS011;61467;50.674;4.618;2023-12-22T06:03:45;14.35;;;2.25;;
72649;SDS011;61467;50.674;4.618;2023-12-22T06:06:12;20.70;;;2.42;;
72649;SDS011;61467;50.674;4.618;2023-12-22T06:08:39;15.50;;;1.92;;
72649;SDS011;61467;50.674;4.618;2023-12-22T06:11:06;16.98;;;3.13;;
72649;SDS011;61467;50.674;4.618;2023-12-22T06:13:33;19.27;;;2.53;;
72649;SDS011;61467;50.674;4.618;2023-12-22T06:16:00;12.20;;;2.33;;
72649;SDS011;61467;50.674;4.618;2023-12-22T06:18:27;21.23;;;3.05;;
72649;SDS011;61467;50.674;4.618;2023-12-22T06:20:55;17.13;;;2.08;;
72649;SDS011;61467;50.674;4.618;2023-12-22T06:23:23;18.60;;;3.20;;
72649;SDS011;61467;50.674;4.618;2023-12-22T06:25:50;20.37;;;2.67;;
72649;SDS011;61467;50.674;4.618;2023-12-22T06:28:17;13.23;;;1.85;;
72649;SDS011;61467;50.674;4.618;2023-12-22T06:30:44;11.75;;;2.78;;
72649;SDS011;61467;50.674;4.618;2023-12-22T06:33:12;15.05;;;1.90;;
72649;SDS011;61467;50.674;4.618;2023-12-22T06:35:39;13.63;;;2.10;;
72649;SDS011;61467;50.674;4.618;2023-12-22T06:38:08;18.77;;;2.70;;
72649;SDS011;61467;50.674;4.618;2023-12-22T06:40:36;16.58;;;1.95;;
72649;SDS011;61467;50.674;4.618;2023-12-22T06:43:03;14.95;;;2.13;;
72649;SDS011;61467;50.674;4.618;2023-12-22T06:45:30;14.73;;;2.20;;
72649;SDS011;61467;50.674;4.618;2023-12-22T06:47:57;11.82;;;2.15;;
72649;SDS011;61467;50.674;4.618;2023-12-22T06:50:24;9.63;;;2.20;;
72649;SDS011;61467;50.674;4.618;2023-12-22T06:52:51;13.10;;;1.80;;
72649;SDS011;61467;50.674;4.618;2023-12-22T06:55:20;9.77;;;1.60;;
72649;SDS011;61467;50.674;4.618;2023-12-22T06:57:46;9.15;;;2.38;;
72649;SDS011;61467;50.674;4.618;2023-12-22T07:00:14;10.43;;;1.92;;
72649;SDS011;61467;50.674;4.618;2023-12-22T07:02:41;6.43;;;1.43;;
72649;SDS011;61467;50.674;4.618;2023-12-22T07:07:57;8.15;;;1.85;;
72649;SDS011;61467;50.674;4.618;2023-12-22T07:10:25;10.77;;;1.90;;
72649;SDS011;61467;50.674;4.618;2023-12-22T07:12:52;8.50;;;1.60;;
72649;SDS011;61467;50.674;4.618;2023-12-22T07:15:19;8.93;;;1.43;;
72649;SDS011;61467;50.674;4.618;2023-12-22T07:17:46;9.32;;;1.52;;
72649;SDS011;61467;50.674;4.618;2023-12-22T07:20:13;12.27;;;2.38;;
72649;SDS011;61467;50.674;4.618;2023-12-22T07:22:40;12.77;;;1.58;;
72649;SDS011;61467;50.674;4.618;2023-12-22T07:25:07;10.48;;;1.35;;
72649;SDS011;61467;50.674;4.618;2023-12-22T07:27:36;9.83;;;1.40;;
72649;SDS011;61467;50.674;4.618;2023-12-22T07:30:03;10.88;;;1.60;;
72649;SDS011;61467;50.674;4.618;2023-12-22T07:32:31;10.10;;;1.73;;
72649;SDS011;61467;50.674;4.618;2023-12-22T07:34:57;10.82;;;1.70;;
72649;SDS011;61467;50.674;4.618;2023-12-22T07:37:24;11.48;;;1.20;;
72649;SDS011;61467;50.674;4.618;2023-12-22T07:39:51;6.67;;;1.27;;
72649;SDS011;61467;50.674;4.618;2023-12-22T07:42:18;8.45;;;1.38;;
72649;SDS011;61467;50.674;4.618;2023-12-22T07:44:46;7.65;;;1.25;;
72649;SDS011;61467;50.674;4.618;2023-12-22T07:47:13;8.13;;;1.65;;
72649;SDS011;61467;50.674;4.618;2023-12-22T07:49:40;9.27;;;1.42;;
72649;SDS011;61467;50.674;4.618;2023-12-22T07:52:07;7.30;;;1.87;;
72649;SDS011;61467;50.674;4.618;2023-12-22T07:54:34;6.57;;;1.42;;
72649;SDS011;61467;50.674;4.618;2023-12-22T07:57:02;7.03;;;1.20;;
72649;SDS011;61467;50.674;4.618;2023-12-22T07:59:29;6.88;;;1.35;;
72649;SDS011;61467;50.674;4.618;2023-12-22T08:01:57;7.60;;;1.42;;
72649;SDS011;61467;50.674;4.618;2023-12-22T08:04:24;6.80;;;1.30;;
72649;SDS011;61467;50.674;4.618;2023-12-22T08:06:51;9.90;;;1.30;;
72649;SDS011;61467;50.674;4.618;2023-12-22T08:09:19;6.53;;;1.38;;
72649;SDS011;61467;50.674;4.618;2023-12-22T08:11:47;8.90;;;1.45;;
72649;SDS011;61467;50.674;4.618;2023-12-22T08:14:17;9.30;;;1.60;;
72649;SDS011;61467;50.674;4.618;2023-12-22T08:16:45;3.93;;;1.13;;
72649;SDS011;61467;50.674;4.618;2023-12-22T08:19:13;6.75;;;1.48;;
72649;SDS011;61467;50.674;4.618;2023-12-22T08:21:42;5.38;;;1.25;;
72649;SDS011;61467;50.674;4.618;2023-12-22T08:24:08;3.88;;;0.93;;
72649;SDS011;61467;50.674;4.618;2023-12-22T08:26:36;8.25;;;1.58;;
72649;SDS011;61467;50.674;4.618;2023-12-22T08:29:03;5.93;;;0.87;;
72649;SDS011;61467;50.674;4.618;2023-12-22T08:31:29;7.00;;;1.05;;
72649;SDS011;61467;50.674;4.618;2023-12-22T08:33:56;6.30;;;1.15;;
72649;SDS011;61467;50.674;4.618;2023-12-22T08:36:25;5.22;;;1.08;;
72649;SDS011;61467;50.674;4.618;2023-12-22T08:38:52;3.45;;;1.13;;
72649;SDS011;61467;50.674;4.618;2023-12-22T08:41:18;3.87;;;1.13;;
72649;SDS011;61467;50.674;4.618;2023-12-22T08:43:45;4.80;;;1.40;;
72649;SDS011;61467;50.674;4.618;2023-12-22T08:46:15;6.38;;;1.33;;
72649;SDS011;61467;50.674;4.618;2023-12-22T08:48:44;7.15;;;1.60;;
72649;SDS011;61467;50.674;4.618;2023-12-22T08:51:11;5.13;;;1.67;;
72649;SDS011;61467;50.674;4.618;2023-12-22T08:53:41;6.13;;;1.60;;
72649;SDS011;61467;50.674;4.618;2023-12-22T08:56:08;7.00;;;1.80;;
72649;SDS011;61467;50.674;4.618;2023-12-22T08:58:35;7.65;;;2.10;;
72649;SDS011;61467;50.674;4.618;2023-12-22T09:01:02;5.03;;;1.45;;
72649;SDS011;61467;50.674;4.618;2023-12-22T09:03:30;5.80;;;1.98;;
72649;SDS011;61467;50.674;4.618;2023-12-22T09:06:01;6.43;;;1.87;;
72649;SDS011;61467;50.674;4.618;2023-12-22T09:08:30;9.88;;;2.30;;
72649;SDS011;61467;50.674;4.618;2023-12-22T09:11:01;6.47;;;2.63;;
72649;SDS011;61467;50.674;4.618;2023-12-22T09:13:28;8.73;;;2.30;;
72649;SDS011;61467;50.674;4.618;2023-12-22T09:15:56;7.60;;;2.22;;
72649;SDS011;61467;50.674;4.618;2023-12-22T09:18:23;7.87;;;2.57;;
72649;SDS011;61467;50.674;4.618;2023-12-22T09:20:50;8.05;;;2.45;;
72649;SDS011;61467;50.674;4.618;2023-12-22T09:23:17;8.95;;;2.15;;
72649;SDS011;61467;50.674;4.618;2023-12-22T09:25:45;8.55;;;1.95;;
72649;SDS011;61467;50.674;4.618;2023-12-22T09:28:13;7.35;;;1.90;;
72649;SDS011;61467;50.674;4.618;2023-12-22T09:30:40;7.20;;;2.10;;
72649;SDS011;61467;50.674;4.618;2023-12-22T09:33:08;9.18;;;1.83;;
72649;SDS011;61467;50.674;4.618;2023-12-22T09:35:35;6.15;;;1.83;;
72649;SDS011;61467;50.674;4.618;2023-12-22T09:38:06;7.82;;;2.03;;
72649;SDS011;61467;50.674;4.618;2023-12-22T09:40:34;8.55;;;1.90;;
72649;SDS011;61467;50.674;4.618;2023-12-22T09:43:02;7.13;;;1.67;;
72649;SDS011;61467;50.674;4.618;2023-12-22T09:45:31;5.90;;;1.80;;
72649;SDS011;61467;50.674;4.618;2023-12-22T09:47:59;5.32;;;1.63;;
72649;SDS011;61467;50.674;4.618;2023-12-22T09:50:27;4.88;;;1.70;;
72649;SDS011;61467;50.674;4.618;2023-12-22T09:52:55;8.93;;;2.13;;
72649;SDS011;61467;50.674;4.618;2023-12-22T09:55:23;7.27;;;1.90;;
72649;SDS011;61467;50.674;4.618;2023-12-22T09:57:52;7.90;;;1.48;;
72649;SDS011;61467;50.674;4.618;2023-12-22T10:00:18;6.85;;;1.65;;
72649;SDS011;61467;50.674;4.618;2023-12-22T10:02:49;9.90;;;1.70;;
72649;SDS011;61467;50.674;4.618;2023-12-22T10:05:16;4.93;;;1.20;;
72649;SDS011;61467;50.674;4.618;2023-12-22T10:07:44;7.77;;;1.80;;
72649;SDS011;61467;50.674;4.618;2023-12-22T10:10:11;8.70;;;1.95;;
72649;SDS011;61467;50.674;4.618;2023-12-22T10:12:39;5.82;;;1.30;;
72649;SDS011;61467;50.674;4.618;2023-12-22T10:15:10;6.90;;;1.63;;
72649;SDS011;61467;50.674;4.618;2023-12-22T10:17:39;8.75;;;2.03;;
72649;SDS011;61467;50.674;4.618;2023-12-22T10:20:08;7.27;;;1.73;;
72649;SDS011;61467;50.674;4.618;2023-12-22T10:22:36;5.78;;;1.40;;
72649;SDS011;61467;50.674;4.618;2023-12-22T10:25:03;5.70;;;1.75;;
72649;SDS011;61467;50.674;4.618;2023-12-22T10:27:31;6.82;;;1.27;;
72649;SDS011;61467;50.674;4.618;2023-12-22T10:30:01;5.30;;;1.17;;
72649;SDS011;61467;50.674;4.618;2023-12-22T10:32:30;4.10;;;1.10;;
72649;SDS011;61467;50.674;4.618;2023-12-22T10:34:56;5.80;;;1.73;;
72649;SDS011;61467;50.674;4.618;2023-12-22T10:37:25;3.45;;;1.13;;
72649;SDS011;61467;50.674;4.618;2023-12-22T10:39:52;4.72;;;1.23;;
72649;SDS011;61467;50.674;4.618;2023-12-22T10:42:20;4.90;;;1.60;;
72649;SDS011;61467;50.674;4.618;2023-12-22T10:44:47;5.23;;;1.27;;
72649;SDS011;61467;50.674;4.618;2023-12-22T10:47:14;6.10;;;1.40;;
72649;SDS011;61467;50.674;4.618;2023-12-22T10:49:41;6.22;;;1.45;;
72649;SDS011;61467;50.674;4.618;2023-12-22T10:52:10;4.70;;;1.38;;
72649;SDS011;61467;50.674;4.618;2023-12-22T10:54:44;7.43;;;1.90;;
72649;SDS011;61467;50.674;4.618;2023-12-22T10:57:11;7.37;;;1.40;;
72649;SDS011;61467;50.674;4.618;2023-12-22T10:59:39;5.10;;;1.55;;
72649;SDS011;61467;50.674;4.618;2023-12-22T11:02:12;6.25;;;1.40;;
72649;SDS011;61467;50.674;4.618;2023-12-22T11:04:47;6.88;;;1.60;;
72649;SDS011;61467;50.674;4.618;2023-12-22T11:07:20;6.68;;;1.73;;
72649;SDS011;61467;50.674;4.618;2023-12-22T11:09:51;4.97;;;1.30;;
72649;SDS011;61467;50.674;4.618;2023-12-22T11:12:23;5.72;;;2.00;;
72649;SDS011;61467;50.674;4.618;2023-12-22T11:14:50;5.40;;;1.58;;
72649;SDS011;61467;50.674;4.618;2023-12-22T11:17:20;6.32;;;1.67;;
72649;SDS011;61467;50.674;4.618;2023-12-22T11:19:48;7.20;;;1.80;;
72649;SDS011;61467;50.674;4.618;2023-12-22T11:22:16;6.77;;;2.20;;
72649;SDS011;61467;50.674;4.618;2023-12-22T11:24:46;4.90;;;1.70;;
72649;SDS011;61467;50.674;4.618;2023-12-22T11:27:16;7.80;;;1.52;;
72649;SDS011;61467;50.674;4.618;2023-12-22T11:29:44;5.15;;;1.50;;
72649;SDS011;61467;50.674;4.618;2023-12-22T11:32:13;3.78;;;1.25;;
72649;SDS011;61467;50.674;4.618;2023-12-22T11:34:42;6.53;;;1.50;;
72649;SDS011;61467;50.674;4.618;2023-12-22T11:37:09;5.85;;;1.40;;
72649;SDS011;61467;50.674;4.618;2023-12-22T11:39:38;5.88;;;1.40;;
72649;SDS011;61467;50.674;4.618;2023-12-22T11:42:08;5.72;;;1.50;;
72649;SDS011;61467;50.674;4.618;2023-12-22T11:44:40;6.53;;;1.48;;
72649;SDS011;61467;50.674;4.618;2023-12-22T11:47:07;5.57;;;1.60;;
72649;SDS011;61467;50.674;4.618;2023-12-22T11:49:38;5.85;;;1.58;;
72649;SDS011;61467;50.674;4.618;2023-12-22T11:52:11;5.82;;;1.58;;
72649;SDS011;61467;50.674;4.618;2023-12-22T11:54:46;5.15;;;1.65;;
72649;SDS011;61467;50.674;4.618;2023-12-22T11:57:32;5.57;;;1.70;;
72649;SDS011;61467;50.674;4.618;2023-12-22T12:00:05;5.67;;;1.57;;
72649;SDS011;61467;50.674;4.618;2023-12-22T12:02:34;6.25;;;1.50;;
72649;SDS011;61467;50.674;4.618;2023-12-22T12:05:03;5.47;;;1.75;;
72649;SDS011;61467;50.674;4.618;2023-12-22T12:07:36;6.88;;;1.65;;
72649;SDS011;61467;50.674;4.618;2023-12-22T12:10:04;3.80;;;1.25;;
72649;SDS011;61467;50.674;4.618;2023-12-22T12:12:32;4.97;;;1.30;;
72649;SDS011;61467;50.674;4.618;2023-12-22T12:15:02;5.47;;;1.23;;
72649;SDS011;61467;50.674;4.618;2023-12-22T12:17:38;5.90;;;1.45;;
72649;SDS011;61467;50.674;4.618;2023-12-22T12:20:06;4.47;;;1.23;;
72649;SDS011;61467;50.674;4.618;2023-12-22T12:22:34;4.60;;;1.13;;
72649;SDS011;61467;50.674;4.618;2023-12-22T12:25:04;6.57;;;1.40;;
72649;SDS011;61467;50.674;4.618;2023-12-22T12:27:34;4.50;;;1.30;;
72649;SDS011;61467;50.674;4.618;2023-12-22T12:30:07;6.30;;;1.52;;
72649;SDS011;61467;50.674;4.618;2023-12-22T12:32:38;5.43;;;1.20;;
72649;SDS011;61467;50.674;4.618;2023-12-22T12:35:05;5.70;;;1.95;;
72649;SDS011;61467;50.674;4.618;2023-12-22T12:37:33;4.47;;;1.20;;
72649;SDS011;61467;50.674;4.618;2023-12-22T12:40:00;5.40;;;1.48;;
72649;SDS011;61467;50.674;4.618;2023-12-22T12:42:29;5.38;;;1.45;;
72649;SDS011;61467;50.674;4.618;2023-12-22T12:44:58;3.95;;;1.10;;
72649;SDS011;61467;50.674;4.618;2023-12-22T12:47:28;2.92;;;0.90;;
72649;SDS011;61467;50.674;4.618;2023-12-22T12:49:58;5.40;;;1.00;;
72649;SDS011;61467;50.674;4.618;2023-12-22T12:52:26;4.38;;;0.90;;
72649;SDS011;61467;50.674;4.618;2023-12-22T12:54:53;4.20;;;1.20;;
72649;SDS011;61467;50.674;4.618;2023-12-22T12:57:21;3.90;;;0.93;;
72649;SDS011;61467;50.674;4.618;2023-12-22T12:59:48;6.00;;;1.33;;
72649;SDS011;61467;50.674;4.618;2023-12-22T13:02:17;3.73;;;0.83;;
72649;SDS011;61467;50.674;4.618;2023-12-22T13:04:48;3.05;;;0.90;;
72649;SDS011;61467;50.674;4.618;2023-12-22T13:07:25;3.45;;;1.25;;
72649;SDS011;61467;50.674;4.618;2023-12-22T13:09:52;4.28;;;0.90;;
72649;SDS011;61467;50.674;4.618;2023-12-22T13:12:22;6.65;;;0.98;;
72649;SDS011;61467;50.674;4.618;2023-12-22T13:14:49;4.53;;;1.07;;
72649;SDS011;61467;50.674;4.618;2023-12-22T13:17:15;6.68;;;1.00;;
72649;SDS011;61467;50.674;4.618;2023-12-22T13:19:42;7.45;;;0.70;;
72649;SDS011;61467;50.674;4.618;2023-12-22T13:22:10;6.78;;;1.10;;
72649;SDS011;61467;50.674;4.618;2023-12-22T13:24:37;4.93;;;0.80;;
72649;SDS011;61467;50.674;4.618;2023-12-22T13:27:04;7.00;;;1.10;;
72649;SDS011;61467;50.674;4.618;2023-12-22T13:29:41;4.90;;;1.00;;
72649;SDS011;61467;50.674;4.618;2023-12-22T13:32:14;4.63;;;1.08;;
72649;SDS011;61467;50.674;4.618;2023-12-22T13:34:46;4.20;;;0.90;;
72649;SDS011;61467;50.674;4.618;2023-12-22T13:37:16;3.47;;;0.70;;
72649;SDS011;61467;50.674;4.618;2023-12-22T13:39:43;5.13;;;1.10;;
72649;SDS011;61467;50.674;4.618;2023-12-22T13:42:14;5.05;;;0.98;;
72649;SDS011;61467;50.674;4.618;2023-12-22T13:44:42;4.45;;;0.90;;
72649;SDS011;61467;50.674;4.618;2023-12-22T13:47:12;3.70;;;1.00;;
72649;SDS011;61467;50.674;4.618;2023-12-22T13:49:39;3.27;;;0.60;;
72649;SDS011;61467;50.674;4.618;2023-12-22T13:52:07;3.85;;;1.02;;
72649;SDS011;61467;50.674;4.618;2023-12-22T13:54:37;6.18;;;1.00;;
72649;SDS011;61467;50.674;4.618;2023-12-22T13:57:04;5.75;;;1.02;;
72649;SDS011;61467;50.674;4.618;2023-12-22T13:59:31;5.18;;;1.17;;
72649;SDS011;61467;50.674;4.618;2023-12-22T14:01:59;5.23;;;1.20;;
72649;SDS011;61467;50.674;4.618;2023-12-22T14:04:26;4.43;;;1.10;;
72649;SDS011;61467;50.674;4.618;2023-12-22T14:06:53;3.72;;;1.00;;
72649;SDS011;61467;50.674;4.618;2023-12-22T14:09:20;3.90;;;1.17;;
72649;SDS011;61467;50.674;4.618;2023-12-22T14:11:51;4.55;;;1.27;;
72649;SDS011;61467;50.674;4.618;2023-12-22T14:14:17;4.40;;;1.33;;
72649;SDS011;61467;50.674;4.618;2023-12-22T14:16:44;3.83;;;1.25;;
72649;SDS011;61467;50.674;4.618;2023-12-22T14:19:14;8.23;;;1.05;;
72649;SDS011;61467;50.674;4.618;2023-12-22T14:21:40;3.33;;;0.95;;
72649;SDS011;61467;50.674;4.618;2023-12-22T14:24:07;5.15;;;1.45;;
72649;SDS011;61467;50.674;4.618;2023-12-22T14:29:24;5.07;;;1.17;;
72649;SDS011;61467;50.674;4.618;2023-12-22T14:31:51;4.03;;;0.80;;
72649;SDS011;61467;50.674;4.618;2023-12-22T14:34:18;6.95;;;0.90;;
72649;SDS011;61467;50.674;4.618;2023-12-22T14:36:45;5.10;;;1.08;;
72649;SDS011;61467;50.674;4.618;2023-12-22T14:39:12;3.77;;;0.90;;
72649;SDS011;61467;50.674;4.618;2023-12-22T14:41:39;4.28;;;1.23;;
72649;SDS011;61467;50.674;4.618;2023-12-22T14:44:08;3.83;;;1.10;;
72649;SDS011;61467;50.674;4.618;2023-12-22T14:46:38;4.90;;;1.13;;
72649;SDS011;61467;50.674;4.618;2023-12-22T14:49:06;4.78;;;1.10;;
72649;SDS011;61467;50.674;4.618;2023-12-22T14:51:36;4.10;;;1.07;;
72649;SDS011;61467;50.674;4.618;2023-12-22T14:54:04;5.88;;;1.10;;